Terminal Aerodrome Forecast
Issued by NWS Wakefield, VA

Home | Current Version | Previous Version | Text Only | Print | Product List | Glossary On
Versions: 1 2 3 4 5 6 7 8 9 10 11 12 13 14 15 16 17 18
000
FTUS41 KAKQ 021132
TAFECG
TAF
KECG 021132Z 0212/0312 VRB04KT P6SM FEW080
      TEMPO 0212/0213 00000KT 4SM BR
     FM021300 VRB06KT P6SM SCT080
     FM021900 14008KT P6SM VCSH BKN060 BKN120
     FM030100 18005KT P6SM SCT080 BKN150=

USA.gov is the U.S. government's official web portal to all federal, state and local government web resources and services.